Huvudsida
METAR-TAF:

METAR-TAF

Flygplatser :

Sogndals flygplats. Haukåsen

Sogndals, Norge

latitud: 61-09N, longitud: 007-08E, höjd: 49 m

Aktuellt väderrapport

Denna rapport gjordes för 2 timmar och 3 minuter sedan, klockan 10:50 UTC
Vind 11 kt från väst/sydväst
Temperatur 11°C
Fuktighet 100%
Tryck 1003 hPa
Sikt 10 km eller mer
Få moln
Spridda moln på en höjd av 2100 ft
lätt regn

METAR: ENSG 181050Z 24011KT 9999 -RA FEW/// SCT021 VV038 11/11 Q1003 RMK WIND 3806FT 22020KT

Tid: 14:53 (12:53 UTC)


TAF: saknas

Aktuella väderrapporter och prognoser från 4000 flygplatser (METAR- och TAF-rapporter).

De tillgängliga stationerna syns som gula och röda prickar på kartan.

För musen över prickarna för att se namnen på stationerna.

Klicka sedan för att få väderrapporter och prognoser.

För att ändra kartan: Klicka på de gröna knapparna med ett svart kors på för att zooma in; den gröna knappen med ett streck på för att zooma ut; eller på de gröna pilarna för angränsande kartor.


METAR-TAF: